• Join FlightAware (Why Join?)
  • Login
  • US Flag 
03:56PM EDT


 

Airport Tracker/Info


-or-


 

Live Flight TrackerFlight Track Log ✈ SWA59 ✈ 27-Jul-2013 ✈ KSAN - KMDW

Flight Track Log - Related Links

Times and Time Zones

All times are in EDT time to prevent confusion due to time zone crossing. See the SWA59 flight status page for this flight to view local times or setup timezone preferences in your user account.

Time Position Orientation Groundspeed Altitude Reporting Facility
EDT Latitude Longitude Course Direction KTS MPH feet Rate Location/Type
08:20PM 32.7558 -117.2853 287° West 194 223 3,900  Level Los Angeles Center
08:21PM 32.6978 -117.3222 208° Southwest 244 281 6,500 2,460 Climbing Los Angeles Center
08:22PM 32.6486 -117.2478 128° Southeast 281 323 9,100 2,280 Climbing Los Angeles Center
08:23PM 32.6356 -117.1419 98° East 323 372 11,300 2,340 Climbing Los Angeles Center
08:24PM 32.6178 -117.0256 100° East 351 404 14,000 2,820 Climbing Los Angeles Center
08:25PM 32.6203 -116.8744 89° East 380 437 17,100 2,640 Climbing Los Angeles Center
08:26PM 32.6333 -116.7456 83° East 393 452 19,500 2,160 Climbing Los Angeles Center
08:27PM 32.6467 -116.6111 83° East 411 473 21,600 1,980 Climbing Los Angeles Center
08:28PM 32.6600 -116.4747 83° East 422 486 23,700 1,800 Climbing Los Angeles Center
08:29PM 32.6717 -116.3361 84° East 430 495 25,400 1,740 Climbing Los Angeles Center
08:30PM 32.6886 -116.1625 83° East 449 517 27,300 1,620 Climbing Los Angeles Center
08:31PM 32.7031 -116.0133 83° East 459 528 28,800 1,380 Climbing Los Angeles Center
08:32PM 32.7169 -115.8625 84° East 463 533 30,200 1,500 Climbing Los Angeles Center
08:33PM 32.7311 -115.7092 84° East 469 540 31,900 1,500 Climbing Los Angeles Center
08:34PM 32.7447 -115.5581 84° East 464 534 33,300 1,380 Climbing Los Angeles Center
08:35PM 32.7536 -115.4061 86° East 464 534 34,800 1,440 Climbing Los Angeles Center
08:36PM 32.7556 -115.2264 89° East 456 525 36,300 1,020 Climbing Los Angeles Center
08:37PM 32.7578 -115.0767 89° East 454 522 37,000 300 Climbing Los Angeles Center
08:38PM 32.7603 -114.9275 89° East 454 522 37,000  Level Los Angeles Center
08:39PM 32.7622 -114.7783 89° East 453 521 37,000  Level Los Angeles Center
08:40PM 32.7647 -114.6314 89° East 449 517 37,000  Level Los Angeles Center
08:41PM 32.7678 -114.4825 89° East 451 519 37,000  Level Los Angeles Center
08:42PM 32.7758 -114.3331 86° East 453 521 37,000  Level Los Angeles Center
08:43PM 32.7783 -114.1547 89° East 450 518 37,000  Level Los Angeles Center
08:44PM 32.7797 -114.0061 89° East 451 519 37,000  Level Los Angeles Center
08:45PM 32.7933 -113.8564 84° East 458 527 37,000  Level Los Angeles Center
08:46PM 32.8153 -113.7067 80° East 461 531 37,000  Level Los Angeles Center
08:47PM 32.8358 -113.5575 81° East 458 527 37,000  Level Los Angeles Center
08:48PM 32.8567 -113.4083 81° East 458 527 37,000  Level Los Angeles Center
08:50PM 32.8847 -113.2375 79° East 462 532 37,000  Level Los Angeles Center
08:51PM 32.9506 -113.0675 65° Northeast 466 536 37,000  Level Albuquerque Center
08:52PM 33.0056 -112.9261 65° Northeast 468 539 37,000  Level Albuquerque Center
08:53PM 33.0614 -112.7858 65° Northeast 467 537 37,000  Level Albuquerque Center
08:54PM 33.1158 -112.6447 65° Northeast 467 537 37,000  Level Albuquerque Center
08:55PM 33.1778 -112.4875 65° Northeast 465 535 37,000  Level Albuquerque Center
08:56PM 33.2325 -112.3472 65° Northeast 468 539 37,000  Level Albuquerque Center
08:57PM 33.2878 -112.2069 65° Northeast 469 540 37,000  Level Albuquerque Center
08:58PM 33.3417 -112.0669 65° Northeast 467 537 37,000  Level Albuquerque Center
08:59PM 33.4008 -111.9319 62° Northeast 465 535 37,000  Level Albuquerque Center
09:00PM 33.4653 -111.7992 60° Northeast 464 534 37,000  Level Albuquerque Center
09:01PM 33.5286 -111.6664 60° Northeast 465 535 37,000  Level Albuquerque Center
09:02PM 33.6042 -111.5042 61° Northeast 468 539 37,000  Level Albuquerque Center
09:03PM 33.6675 -111.3703 60° Northeast 467 537 37,000  Level Albuquerque Center
09:04PM 33.7264 -111.2325 63° Northeast 468 539 37,000  Level Albuquerque Center
09:05PM 33.7797 -111.0908 66° East 468 539 37,000  Level Albuquerque Center
09:06PM 33.8303 -110.9453 67° East 472 543 37,000  Level Albuquerque Center
09:07PM 33.8825 -110.8000 67° East 475 547 37,000  Level Albuquerque Center
09:08PM 33.9336 -110.6556 67° East 473 544 37,000 300 Level Albuquerque Center
09:09PM 33.9839 -110.5103 67° East 472 543 37,700 840 Climbing Albuquerque Center
09:10PM 34.0367 -110.3542 68° East 473 544 38,800 600 Climbing Albuquerque Center
09:11PM 34.0872 -110.2078 67° East 474 545 39,000 60 Climbing Albuquerque Center
09:12PM 34.1392 -110.0481 69° East 478 550 39,000  Level Albuquerque Center
09:13PM 34.1867 -109.8800 71° East 475 547 39,000  Level Albuquerque Center
09:14PM 34.2264 -109.7358 72° East 474 545 39,000  Level Albuquerque Center
09:15PM 34.2714 -109.5664 72° East 474 545 39,000  Level Albuquerque Center
09:16PM 34.3089 -109.4222 72° East 472 543 39,000  Level Albuquerque Center
09:17PM 34.3469 -109.2750 73° East 475 547 39,000  Level Albuquerque Center
09:18PM 34.3900 -109.1044 73° East 476 548 39,000  Level Albuquerque Center
09:19PM 34.4283 -108.9558 73° East 480 552 39,000  Level Albuquerque Center
09:20PM 34.4803 -108.7869 69° East 482 555 39,000  Level Albuquerque Center
09:21PM 34.5236 -108.6403 70° East 482 555 39,000  Level Albuquerque Center
09:22PM 34.5664 -108.4947 70° East 482 555 39,000  Level Albuquerque Center
09:23PM 34.6158 -108.3258 70° East 477 549 39,000  Level Albuquerque Center
09:24PM 34.6569 -108.1811 71° East 476 548 39,000  Level Albuquerque Center
09:25PM 34.6992 -108.0397 70° East 475 547 39,000  Level Albuquerque Center
09:26PM 34.7417 -107.8883 71° East 474 545 39,000  Level Albuquerque Center
09:27PM 34.7936 -107.7089 71° East 471 542 39,000  Level Albuquerque Center
09:28PM 34.8364 -107.5589 71° East 469 540 39,000  Level Albuquerque Center
09:29PM 34.8800 -107.4031 71° East 473 544 39,000  Level Albuquerque Center
09:30PM 34.9222 -107.2531 71° East 470 541 39,000  Level Albuquerque Center
09:31PM 34.9672 -107.0911 71° East 469 540 39,000  Level Albuquerque Center
09:33PM 35.0097 -106.9403 71° East 471 542 39,000  Level Albuquerque Center
09:34PM 35.0533 -106.7911 70° East 472 543 39,000  Level Albuquerque Center
09:35PM 35.1231 -106.6497 59° Northeast 475 547 39,000  Level Albuquerque Center
09:36PM 35.1797 -106.5064 64° Northeast 483 556 39,000  Level Albuquerque Center
09:37PM 35.2414 -106.3656 62° Northeast 474 545 39,000  Level Albuquerque Center
09:38PM 35.3036 -106.2250 61° Northeast 472 543 39,000  Level Albuquerque Center
09:39PM 35.3642 -106.0864 62° Northeast 467 537 39,000  Level Albuquerque Center
09:40PM 35.4328 -105.9389 60° Northeast 480 552 39,000  Level Albuquerque Center
09:41PM 35.4986 -105.7786 63° Northeast 469 540 39,000  Level Albuquerque Center
09:42PM 35.5592 -105.6358 62° Northeast 473 544 39,000  Level Albuquerque Center
09:43PM 35.6228 -105.4914 62° Northeast 474 545 39,000  Level Albuquerque Center
09:44PM 35.6847 -105.3458 62° Northeast 476 548 39,000  Level Albuquerque Center
09:45PM 35.7472 -105.2006 62° Northeast 476 548 39,000  Level Albuquerque Center
09:46PM 35.8086 -105.0544 63° Northeast 475 547 39,000  Level Albuquerque Center
09:47PM 35.8700 -104.9092 62° Northeast 473 544 39,000  Level Albuquerque Center
09:48PM 35.9311 -104.7644 62° Northeast 471 542 39,000  Level Albuquerque Center
09:49PM 35.9925 -104.6178 63° Northeast 474 545 39,000  Level Albuquerque Center
09:50PM 36.0519 -104.4711 63° Northeast 473 544 39,000  Level Albuquerque Center
09:51PM 36.1147 -104.3231 62° Northeast 477 549 39,000  Level Albuquerque Center
09:52PM 36.1750 -104.1764 63° Northeast 475 547 39,000  Level Albuquerque Center
09:53PM 36.2364 -104.0317 62° Northeast 471 542 39,000  Level Albuquerque Center
09:54PM 36.3047 -103.8614 63° Northeast 469 540 39,000  Level Albuquerque Center
09:55PM 36.3644 -103.7158 63° Northeast 470 541 39,000  Level Albuquerque Center
09:56PM 36.4225 -103.5703 64° Northeast 467 537 39,000  Level Albuquerque Center
09:57PM 36.4817 -103.4247 63° Northeast 467 537 39,000  Level Albuquerque Center
09:58PM 36.5397 -103.2797 63° Northeast 466 536 39,000  Level Albuquerque Center
09:59PM 36.5986 -103.1322 64° Northeast 469 540 39,000  Level Albuquerque Center
10:00PM 36.6550 -102.9894 64° Northeast 471 542 39,000  Level Albuquerque Center
10:01PM 36.7103 -102.8497 64° Northeast 471 542 39,000  Level Albuquerque Center
10:02PM 36.7750 -102.6853 64° Northeast 473 544 39,000  Level Albuquerque Center
10:03PM 36.8294 -102.5450 64° Northeast 471 542 39,000  Level Albuquerque Center
10:04PM 36.8908 -102.3900 64° Northeast 475 547 39,000  Level Albuquerque Center
10:05PM 36.9447 -102.2508 64° Northeast 468 539 39,000  Level Albuquerque Center
10:06PM 37.0086 -102.0858 64° Northeast 472 543 39,000  Level Albuquerque Center
10:07PM 37.0342 -102.0144 66° East 470 541 39,000  Level Kansas City Center
10:08PM 37.1106 -101.8631 58° Northeast 462 532 39,000  Level Kansas City Center
10:09PM 37.1831 -101.7422 53° Northeast 454 522 39,000  Level Kansas City Center
10:10PM 37.2675 -101.5986 54° Northeast 456 525 39,000  Level Kansas City Center
10:11PM 37.3397 -101.4767 53° Northeast 456 525 39,000  Level Kansas City Center
10:12PM 37.4108 -101.3519 54° Northeast 458 527 39,000  Level Kansas City Center
10:13PM 37.4944 -101.2067 54° Northeast 458 527 39,000  Level Kansas City Center
10:14PM 37.5625 -101.0883 54° Northeast 461 531 39,000  Level Kansas City Center
10:15PM 37.5925 -100.9275 77° East 479 551 39,000  Level Kansas City Center
10:16PM 37.6053 -100.7447 85° East 503 579 39,000  Level Kansas City Center
10:17PM 37.6156 -100.5683 86° East 505 581 39,000  Level Kansas City Center
10:18PM 37.6036 -100.3717 94° East 503 579 39,000  Level Kansas City Center
10:19PM 37.5844 -100.2042 98° East 505 581 39,000  Level Kansas City Center
10:20PM 37.5608 -100.0106 99° East 503 579 39,000  Level Kansas City Center
10:21PM 37.5422 -99.8453 98° East 499 574 39,000  Level Kansas City Center
10:22PM 37.5208 -99.6800 99° East 500 575 39,000  Level Kansas City Center
10:23PM 37.4978 -99.4889 99° East 497 572 39,000  Level Kansas City Center
10:24PM 37.4778 -99.3169 98° East 497 572 39,000  Level Kansas City Center
10:25PM 37.4567 -99.1464 99° East 496 571 39,000  Level Kansas City Center
10:26PM 37.4358 -98.9753 99° East 496 571 39,000  Level Kansas City Center
10:27PM 37.4147 -98.8036 99° East 498 573 39,000  Level Kansas City Center
10:28PM 37.3958 -98.6308 98° East 500 575 39,000  Level Kansas City Center
10:29PM 37.3864 -98.4589 94° East 499 574 39,000  Level Kansas City Center
10:30PM 37.3747 -98.2822 95° East 504 580 39,000  Level Kansas City Center
10:31PM 37.3933 -98.1144 82° East 495 570 39,000  Level Kansas City Center
10:32PM 37.4600 -97.9764 59° Northeast 472 543 39,000  Level Kansas City Center
10:33PM 37.5336 -97.8419 55° Northeast 468 539 39,000  Level Kansas City Center
10:34PM 37.6194 -97.6783 56° Northeast 471 542 39,000  Level Kansas City Center
10:35PM 37.6822 -97.5589 56° Northeast 460 529 39,000  Level Kansas City Center
10:36PM 37.7608 -97.4147 55° Northeast 460 529 39,000  Level Kansas City Center
10:37PM 37.8314 -97.2819 56° Northeast 459 528 39,000  Level Kansas City Center
10:38PM 37.9000 -97.1506 56° Northeast 451 519 39,000  Level Kansas City Center
10:39PM 37.9689 -97.0189 56° Northeast 451 519 39,000  Level Kansas City Center
10:40PM 38.0375 -96.8883 56° Northeast 448 516 39,000  Level Kansas City Center
10:41PM 38.1061 -96.7558 57° Northeast 450 518 39,000  Level Kansas City Center
10:42PM 38.1756 -96.6236 56° Northeast 451 519 39,000  Level Kansas City Center
10:43PM 38.2447 -96.4906 56° Northeast 452 520 39,000  Level Kansas City Center
10:44PM 38.3214 -96.3408 57° Northeast 450 518 39,000  Level Kansas City Center
10:45PM 38.3886 -96.2100 57° Northeast 460 529 39,000  Level Kansas City Center
10:46PM 38.4664 -96.0550 57° Northeast 465 535 39,000  Level Kansas City Center
10:47PM 38.5336 -95.9183 58° Northeast 472 543 39,000  Level Kansas City Center
10:48PM 38.6025 -95.7842 57° Northeast 472 543 39,000  Level Kansas City Center
10:49PM 38.6817 -95.6281 57° Northeast 471 542 39,000  Level Kansas City Center
10:50PM 38.7503 -95.4925 57° Northeast 475 547 39,000  Level Kansas City Center
10:51PM 38.8175 -95.3561 58° Northeast 474 545 39,000  Level Kansas City Center
10:52PM 38.8953 -95.1997 57° Northeast 469 540 39,000  Level Kansas City Center
10:53PM 38.9619 -95.0644 58° Northeast 472 543 39,000  Level Kansas City Center
10:54PM 39.0389 -94.9067 58° Northeast 472 543 39,000  Level Kansas City Center
10:55PM 39.1053 -94.7717 58° Northeast 471 542 39,000  Level Kansas City Center
10:56PM 39.1717 -94.6331 58° Northeast 477 549 39,000  Level Kansas City Center
10:58PM 39.2514 -94.4728 57° Northeast 476 548 39,000  Level Kansas City Center
10:59PM 39.3181 -94.3369 58° Northeast 470 541 39,000  Level Kansas City Center
11:00PM 39.3831 -94.2017 58° Northeast 465 535 39,000  Level Kansas City Center
11:01PM 39.4575 -94.0450 58° Northeast 458 527 39,000  Level Kansas City Center
11:02PM 39.5189 -93.9061 60° Northeast 465 535 39,000  Level Kansas City Center
11:03PM 39.5742 -93.7625 63° Northeast 467 537 39,000  Level Kansas City Center
11:04PM 39.6408 -93.5953 63° Northeast 467 537 39,000  Level Kansas City Center
11:05PM 39.6986 -93.4456 63° Northeast 469 540 39,000  Level Kansas City Center
11:06PM 39.7575 -93.2997 62° Northeast 463 533 39,000  Level Kansas City Center
11:07PM 39.8150 -93.1531 63° Northeast 461 531 39,000  Level Kansas City Center
11:08PM 39.8708 -93.0036 64° Northeast 464 534 39,000  Level Kansas City Center
11:09PM 39.9294 -92.8519 63° Northeast 472 543 39,000  Level Kansas City Center
11:10PM 39.9881 -92.7019 63° Northeast 472 543 39,000  Level Kansas City Center
11:11PM 40.0456 -92.5489 64° Northeast 476 548 39,000  Level Kansas City Center
11:12PM 40.1078 -92.3833 64° Northeast 478 550 39,000  Level Kansas City Center
11:13PM 40.1736 -92.2142 63° Northeast 481 554 39,000  Level Kansas City Center
11:14PM 40.2308 -92.0611 64° Northeast 479 551 39,000  Level Kansas City Center
11:15PM 40.2869 -91.9083 64° Northeast 474 545 39,000  Level Kansas City Center
11:16PM 40.3439 -91.7561 64° Northeast 472 543 39,000  Level Kansas City Center
11:17PM 40.4008 -91.6025 64° Northeast 472 543 39,000  Level Kansas City Center
11:18PM 40.4569 -91.4486 64° Northeast 473 544 39,000  Level Kansas City Center
11:19PM 40.5178 -91.2828 64° Northeast 474 545 39,000  Level Kansas City Center
11:20PM 40.5750 -91.1281 64° Northeast 472 543 39,000  Level Kansas City Center
11:21PM 40.6322 -90.9703 64° Northeast 475 547 39,000 -420 Level Kansas City Center
11:22PM 40.6894 -90.8117 65° Northeast 478 550 38,200 -840 Descending Kansas City Center
11:23PM 40.7458 -90.6550 65° Northeast 474 545 37,300 -960 Descending Kansas City Center
11:24PM 40.8028 -90.4964 65° Northeast 475 547 36,300 -1,020 Descending Kansas City Center
11:25PM 40.8594 -90.3372 65° Northeast 477 549 35,300 -1,500 Descending Kansas City Center
11:26PM 40.9194 -90.1653 65° Northeast 484 557 33,200 -2,520 Descending Chicago Center
11:27PM 40.9772 -90.0064 64° Northeast 485 558 30,100 -3,060 Descending Chicago Center
11:28PM 41.0306 -89.8483 66° East 484 557 27,100 -3,060 Descending Chicago Center
11:29PM 41.0861 -89.6836 66° East 487 560 24,000 -3,180 Descending Chicago Center
11:30PM 41.1417 -89.5250 65° Northeast 478 550 20,800 -3,120 Descending Chicago Center
11:31PM 41.1931 -89.3747 66° East 454 522 17,800 -2,760 Descending Chicago Center
11:32PM 41.2431 -89.2286 65° Northeast 436 502 15,300 -2,220 Descending Chicago Center
11:33PM 41.2869 -89.0953 66° East 408 470 13,400 -2,040 Descending Chicago Center
11:34PM 41.3386 -88.9439 66° East 376 433 11,300 -1,260 Descending Chicago Center
11:35PM 41.3761 -88.8300 66° East 334 384 10,900 -1,020 Descending Chicago Center
11:36PM 41.4125 -88.7242 65° Northeast 320 368 9,300 -1,320 Descending Chicago Center
11:37PM 41.4364 -88.6153 74° East 310 357 8,300 -1,320 Descending Chicago Center
11:38PM 41.4592 -88.5092 74° East 299 344 6,700 -1,200 Descending Chicago Center
11:39PM 41.4825 -88.4058 73° East 294 338 6,000 -360 Descending Chicago Center
11:40PM 41.5042 -88.3033 74° East 289 333 6,000  Level Chicago Center
11:41PM 41.5267 -88.2003 74° East 288 331 6,000 -420 Level Chicago Center
11:42PM 41.5503 -88.0967 73° East 288 331 5,200 -1,020 Descending Chicago Center
11:43PM 41.5719 -87.9925 74° East 288 331 4,000 -780 Descending Chicago Center
11:44PM 41.5925 -87.8967 74° East 275 316 3,700 -600 Descending Chicago Center
11:45PM 41.6219 -87.8192 63° Northeast 255 293 2,900 -600 Descending Chicago Center
11:46PM 41.6608 -87.7492 53° Northeast 243 280 2,500 -240 Descending Chicago Center
11:47PM 41.6981 -87.6800 54° Northeast 237 273 2,500 -240 Level Chicago Center
11:48PM 41.7306 -87.6761 North 188 216 2,100 -540 Descending Chicago Center
11:49PM 41.7525 -87.7072 313° West 140 161 1,500 -600 Descending Chicago Center
11:50PM 41.7789 -87.7436 314° West 130 150 1,000 -540 Descending Chicago Center